createdAt,value
2023-05-20T00:02:12.155Z,16.50
2023-05-20T00:04:40.866Z,16.50
2023-05-20T00:07:08.069Z,16.50
2023-05-20T00:09:34.892Z,16.40
2023-05-20T00:12:02.659Z,16.40
2023-05-20T00:14:29.487Z,16.20
2023-05-20T00:16:56.425Z,16.30
2023-05-20T00:19:23.591Z,16.20
2023-05-20T00:21:50.500Z,16.30
2023-05-20T00:24:17.318Z,16.30
2023-05-20T00:26:44.227Z,16.20
2023-05-20T00:29:11.099Z,16.20
2023-05-20T00:31:37.977Z,16.10
2023-05-20T00:34:04.843Z,16.00
2023-05-20T00:36:31.731Z,16.00
2023-05-20T00:38:59.039Z,16.10
2023-05-20T00:41:26.218Z,16.00
2023-05-20T00:43:56.787Z,16.10
2023-05-20T00:46:28.353Z,16.10
2023-05-20T00:48:55.448Z,16.00
2023-05-20T00:51:22.395Z,16.00
2023-05-20T00:53:49.775Z,16.00
2023-05-20T00:56:16.734Z,16.10
2023-05-20T00:58:43.615Z,16.10
2023-05-20T01:01:10.573Z,16.00
2023-05-20T01:03:38.635Z,16.00
2023-05-20T01:06:05.713Z,16.00
2023-05-20T01:08:34.140Z,16.10
2023-05-20T01:11:08.597Z,16.10
2023-05-20T01:13:43.231Z,16.10
2023-05-20T01:16:11.881Z,16.10
2023-05-20T01:18:42.037Z,16.10
2023-05-20T01:21:13.861Z,16.10
2023-05-20T01:23:41.776Z,16.20
2023-05-20T01:26:10.207Z,16.10
2023-05-20T01:28:39.361Z,16.10
2023-05-20T01:31:14.672Z,16.10
2023-05-20T01:33:42.792Z,16.00
2023-05-20T01:36:10.946Z,16.10
2023-05-20T01:38:39.940Z,16.10
2023-05-20T01:41:07.733Z,16.10
2023-05-20T01:43:35.235Z,16.10
2023-05-20T01:46:02.992Z,16.00
2023-05-20T01:48:29.926Z,16.00
2023-05-20T01:50:56.885Z,15.90
2023-05-20T01:53:23.696Z,15.80
2023-05-20T01:55:50.953Z,15.70
2023-05-20T01:58:17.857Z,15.80
2023-05-20T02:00:44.757Z,15.70
2023-05-20T02:03:11.715Z,15.60
2023-05-20T02:05:38.834Z,15.60
2023-05-20T02:08:06.429Z,15.60
2023-05-20T02:10:33.294Z,15.70
2023-05-20T02:13:00.151Z,15.60
2023-05-20T02:15:26.971Z,15.60
2023-05-20T02:17:53.930Z,15.60
2023-05-20T02:20:20.769Z,15.70
2023-05-20T02:22:47.609Z,15.70
2023-05-20T02:25:14.511Z,15.80
2023-05-20T02:27:41.633Z,15.80
2023-05-20T02:30:09.081Z,15.70
2023-05-20T02:32:36.187Z,15.70
2023-05-20T02:35:03.114Z,15.70
2023-05-20T02:37:29.990Z,15.80
2023-05-20T02:39:56.868Z,15.80
2023-05-20T02:42:23.806Z,15.80
2023-05-20T02:44:50.708Z,15.90
2023-05-20T02:47:17.610Z,15.90
2023-05-20T02:49:44.508Z,15.80
2023-05-20T02:52:11.317Z,15.70
2023-05-20T02:54:38.193Z,15.80
2023-05-20T02:57:05.134Z,15.90
2023-05-20T02:59:32.055Z,16.20
2023-05-20T03:01:59.038Z,16.60
2023-05-20T03:04:27.099Z,16.50
2023-05-20T03:06:54.042Z,16.60
2023-05-20T03:09:20.904Z,17.00
2023-05-20T03:11:48.754Z,17.40
2023-05-20T03:14:15.784Z,18.00
2023-05-20T03:16:42.736Z,18.10
2023-05-20T03:19:09.676Z,17.80
2023-05-20T03:21:36.675Z,17.80
2023-05-20T03:24:03.733Z,17.60
2023-05-20T03:26:30.635Z,18.00
2023-05-20T03:28:57.454Z,18.20
2023-05-20T03:31:24.386Z,18.30
2023-05-20T03:33:51.209Z,18.70
2023-05-20T03:36:18.108Z,19.00
2023-05-20T03:38:44.955Z,19.20
2023-05-20T03:41:11.764Z,19.40
2023-05-20T03:43:38.609Z,19.80
2023-05-20T03:46:05.625Z,20.20
2023-05-20T03:48:32.413Z,20.70
2023-05-20T03:50:59.279Z,21.00
2023-05-20T03:53:26.317Z,21.10
2023-05-20T03:55:53.299Z,20.60
2023-05-20T03:58:23.408Z,20.40
2023-05-20T04:00:50.252Z,20.40
2023-05-20T04:03:17.303Z,20.30
2023-05-20T04:05:44.146Z,20.50
2023-05-20T04:08:13.641Z,20.40
2023-05-20T04:10:43.572Z,20.50
2023-05-20T04:13:11.556Z,20.70
2023-05-20T04:15:39.044Z,20.80
2023-05-20T04:18:06.446Z,20.90
2023-05-20T04:20:33.360Z,21.30
2023-05-20T04:23:00.368Z,21.30
2023-05-20T04:25:27.420Z,20.80
2023-05-20T04:27:54.502Z,21.20
2023-05-20T04:30:22.084Z,21.60
2023-05-20T04:32:50.712Z,22.00
2023-05-20T04:35:18.074Z,22.30
2023-05-20T04:37:47.676Z,22.30
2023-05-20T04:40:15.158Z,22.50
2023-05-20T04:42:42.027Z,22.50
2023-05-20T04:45:09.143Z,22.40
2023-05-20T04:47:38.831Z,22.50
2023-05-20T04:50:11.090Z,22.70
2023-05-20T04:52:39.225Z,22.80
2023-05-20T04:55:09.772Z,22.70
2023-05-20T04:57:39.668Z,23.20
2023-05-20T05:00:07.919Z,23.40
2023-05-20T05:02:35.647Z,23.40
2023-05-20T05:05:02.766Z,23.30
2023-05-20T05:07:29.643Z,23.70
2023-05-20T05:09:56.465Z,24.10
2023-05-20T05:12:23.467Z,24.00
2023-05-20T05:14:50.689Z,23.50
2023-05-20T05:17:17.592Z,22.80
2023-05-20T05:19:44.430Z,22.50
2023-05-20T05:22:11.252Z,22.60
2023-05-20T05:24:38.977Z,22.50
2023-05-20T05:27:06.090Z,22.70
2023-05-20T05:29:33.003Z,22.80
2023-05-20T05:31:59.924Z,23.10
2023-05-20T05:34:26.953Z,23.10
2023-05-20T05:36:53.851Z,23.40
2023-05-20T05:39:20.751Z,23.60
2023-05-20T05:41:47.568Z,23.50
2023-05-20T05:44:15.147Z,23.30
2023-05-20T05:46:42.050Z,23.20
2023-05-20T05:49:08.921Z,23.00
2023-05-20T05:51:38.213Z,22.80
2023-05-20T05:54:05.760Z,23.00
2023-05-20T05:56:32.628Z,23.60
2023-05-20T05:58:59.494Z,24.10
2023-05-20T06:01:26.587Z,24.00
2023-05-20T06:03:53.933Z,24.20
2023-05-20T06:06:20.966Z,24.20
2023-05-20T06:08:47.770Z,24.20
2023-05-20T06:11:14.717Z,24.50
2023-05-20T06:13:41.682Z,24.00
2023-05-20T06:16:08.660Z,23.70
2023-05-20T06:18:35.681Z,23.60
2023-05-20T06:21:03.402Z,23.90
2023-05-20T06:23:30.611Z,24.10
2023-05-20T06:26:01.482Z,24.20
2023-05-20T06:28:28.475Z,24.10
2023-05-20T06:30:56.098Z,24.30
2023-05-20T06:33:27.478Z,24.00
2023-05-20T06:35:59.015Z,23.50
2023-05-20T06:38:25.928Z,23.60
2023-05-20T06:40:52.941Z,24.00
2023-05-20T06:43:19.881Z,24.30
2023-05-20T06:45:46.759Z,24.30
2023-05-20T06:48:13.556Z,24.00
2023-05-20T06:50:40.501Z,24.30
2023-05-20T06:53:07.368Z,24.30
2023-05-20T06:55:34.403Z,24.20
2023-05-20T06:58:01.418Z,23.90
2023-05-20T07:00:28.259Z,24.20
2023-05-20T07:02:55.148Z,24.20
2023-05-20T07:05:22.123Z,24.50
2023-05-20T07:07:48.939Z,24.30
2023-05-20T07:10:15.768Z,24.70
2023-05-20T07:12:42.620Z,24.40
2023-05-20T07:15:09.957Z,24.00
2023-05-20T07:17:36.970Z,23.40
2023-05-20T07:20:04.404Z,23.60
2023-05-20T07:22:31.392Z,23.90
2023-05-20T07:24:59.492Z,24.10
2023-05-20T07:27:26.484Z,24.00
2023-05-20T07:29:53.356Z,24.10
2023-05-20T07:32:20.307Z,23.60
2023-05-20T07:34:47.159Z,23.40
2023-05-20T07:37:14.838Z,23.60
2023-05-20T07:39:41.694Z,23.70
2023-05-20T07:42:08.571Z,24.10
2023-05-20T07:44:35.467Z,24.30
2023-05-20T07:47:03.627Z,24.20
2023-05-20T07:49:30.413Z,24.40
2023-05-20T07:51:57.416Z,24.00
2023-05-20T07:54:24.485Z,23.80
2023-05-20T07:56:51.555Z,23.60
2023-05-20T07:59:18.488Z,23.80
2023-05-20T08:01:45.364Z,24.10
2023-05-20T08:04:12.338Z,24.00
2023-05-20T08:06:39.898Z,23.70
2023-05-20T08:09:07.325Z,23.80
2023-05-20T08:11:34.130Z,23.80
2023-05-20T08:14:02.118Z,23.70
2023-05-20T08:16:29.070Z,24.10
2023-05-20T08:18:56.138Z,23.90
2023-05-20T08:21:23.500Z,24.00
2023-05-20T08:23:50.288Z,24.50
2023-05-20T08:26:17.146Z,24.40
2023-05-20T08:28:44.005Z,24.20
2023-05-20T08:31:10.904Z,23.60
2023-05-20T08:33:37.851Z,23.40
2023-05-20T08:36:04.839Z,23.70
2023-05-20T08:38:31.678Z,23.50
2023-05-20T08:40:58.580Z,23.60
2023-05-20T08:43:26.590Z,23.50
2023-05-20T08:45:53.733Z,23.70
2023-05-20T08:48:23.189Z,23.90
2023-05-20T08:50:53.641Z,23.60
2023-05-20T08:53:22.776Z,23.80
2023-05-20T08:56:03.094Z,24.00
2023-05-20T08:58:33.041Z,24.10
2023-05-20T09:01:00.136Z,23.80
2023-05-20T09:03:27.190Z,23.70
2023-05-20T09:05:54.350Z,23.70
2023-05-20T09:08:28.408Z,23.70
2023-05-20T09:10:55.253Z,23.60
2023-05-20T09:13:24.046Z,23.60
2023-05-20T09:15:51.064Z,23.80
2023-05-20T09:18:18.018Z,23.60
2023-05-20T09:20:48.126Z,23.60
2023-05-20T09:23:14.934Z,23.40
2023-05-20T09:25:42.048Z,23.60
2023-05-20T09:28:09.384Z,23.00
2023-05-20T09:30:36.421Z,23.20
2023-05-20T09:33:05.466Z,23.40
2023-05-20T09:35:37.538Z,23.10
2023-05-20T09:38:08.038Z,22.70
2023-05-20T09:40:37.794Z,22.90
2023-05-20T09:43:08.426Z,22.90
2023-05-20T09:45:35.860Z,22.90
2023-05-20T09:48:05.719Z,22.90
2023-05-20T09:50:32.760Z,23.20
2023-05-20T09:53:03.802Z,23.30
2023-05-20T09:55:31.744Z,23.40
2023-05-20T09:58:03.234Z,22.90
2023-05-20T10:00:30.805Z,23.10
2023-05-20T10:02:58.794Z,23.20
2023-05-20T10:05:58.114Z,23.40
2023-05-20T10:08:36.945Z,23.20
2023-05-20T10:11:44.489Z,23.20
2023-05-20T10:14:42.177Z,23.00
2023-05-20T10:17:30.382Z,22.80
2023-05-20T10:20:01.407Z,22.90
2023-05-20T10:22:29.629Z,23.40
2023-05-20T10:25:00.732Z,23.60
2023-05-20T10:27:27.577Z,23.10
2023-05-20T10:29:57.198Z,23.00
2023-05-20T10:32:31.552Z,23.10
2023-05-20T10:35:05.010Z,23.10
2023-05-20T10:37:50.570Z,23.40
2023-05-20T10:40:19.766Z,23.40
2023-05-20T10:42:48.047Z,23.40
2023-05-20T10:45:28.852Z,23.30
2023-05-20T10:47:57.372Z,23.50
2023-05-20T10:50:36.280Z,23.90
2023-05-20T10:53:13.038Z,24.00
2023-05-20T10:55:53.445Z,24.00
2023-05-20T10:58:23.746Z,24.10
2023-05-20T11:00:54.971Z,24.00
2023-05-20T11:03:26.016Z,23.80
2023-05-20T11:05:52.968Z,24.00
2023-05-20T11:08:27.814Z,24.40
2023-05-20T11:10:57.336Z,24.10
2023-05-20T11:13:25.087Z,24.00
2023-05-20T11:15:52.123Z,24.00
2023-05-20T11:18:19.185Z,24.00
2023-05-20T11:20:47.079Z,24.10
2023-05-20T11:23:15.246Z,24.50
2023-05-20T11:25:42.362Z,24.70
2023-05-20T11:28:15.297Z,24.70
2023-05-20T11:30:45.587Z,24.70
2023-05-20T11:33:13.896Z,24.50
2023-05-20T11:35:49.936Z,24.30
2023-05-20T11:38:17.409Z,24.30
2023-05-20T11:40:51.873Z,24.50
2023-05-20T11:43:19.638Z,24.60
2023-05-20T11:45:52.507Z,24.00
2023-05-20T11:48:19.796Z,23.90
2023-05-20T11:50:48.243Z,24.10
2023-05-20T11:53:17.817Z,24.50
2023-05-20T11:55:46.646Z,24.80
2023-05-20T11:58:17.227Z,24.90
2023-05-20T12:03:17.149Z,25.30
2023-05-20T12:05:44.386Z,25.30
2023-05-20T12:08:11.479Z,25.30
2023-05-20T12:10:38.352Z,25.30
2023-05-20T12:13:08.733Z,25.30
2023-05-20T12:15:39.267Z,25.30
2023-05-20T12:18:06.385Z,25.10
2023-05-20T12:20:37.278Z,25.30
2023-05-20T12:23:04.894Z,25.30
2023-05-20T12:25:31.819Z,25.20
2023-05-20T12:27:59.623Z,24.80
2023-05-20T12:30:26.454Z,25.30
2023-05-20T12:32:53.979Z,25.30
2023-05-20T12:35:40.750Z,25.40
2023-05-20T12:38:08.298Z,25.30
2023-05-20T12:40:36.423Z,25.10
2023-05-20T12:43:04.728Z,25.20
2023-05-20T12:45:31.823Z,25.00
2023-05-20T12:47:59.134Z,25.00
2023-05-20T12:50:26.026Z,24.80
2023-05-20T12:52:53.203Z,25.20
2023-05-20T12:55:20.102Z,25.10
2023-05-20T12:57:48.530Z,25.20
2023-05-20T13:00:16.029Z,25.20
2023-05-20T13:02:43.559Z,25.10
2023-05-20T13:05:11.326Z,25.00
2023-05-20T13:07:38.645Z,24.50
2023-05-20T13:10:06.899Z,24.20
2023-05-20T13:12:34.805Z,24.40
2023-05-20T13:15:01.720Z,24.50
2023-05-20T13:17:28.556Z,24.50
2023-05-20T13:19:55.968Z,24.90
2023-05-20T13:22:23.209Z,25.20
2023-05-20T13:24:50.119Z,25.10
2023-05-20T13:27:16.947Z,25.10
2023-05-20T13:29:43.865Z,25.20
2023-05-20T13:32:10.924Z,24.70
2023-05-20T13:34:38.813Z,24.60
2023-05-20T13:37:06.373Z,24.40
2023-05-20T13:39:33.272Z,24.10
2023-05-20T13:42:00.317Z,24.10
2023-05-20T13:44:27.179Z,24.00
2023-05-20T13:46:54.147Z,24.30
2023-05-20T13:49:21.602Z,24.60
2023-05-20T13:51:48.480Z,24.60
2023-05-20T13:54:15.593Z,24.30
2023-05-20T13:56:42.666Z,24.10
2023-05-20T13:59:09.516Z,23.90
2023-05-20T14:01:39.017Z,24.00
2023-05-20T14:04:07.395Z,24.20
2023-05-20T14:06:34.338Z,24.20
2023-05-20T14:09:03.034Z,24.20
2023-05-20T14:11:29.851Z,24.00
2023-05-20T14:13:56.643Z,23.90
2023-05-20T14:16:23.650Z,23.90
2023-05-20T14:18:50.597Z,23.80
2023-05-20T14:21:17.601Z,23.70
2023-05-20T14:23:45.112Z,23.90
2023-05-20T14:26:11.975Z,23.90
2023-05-20T14:28:39.775Z,23.90
2023-05-20T14:31:08.978Z,24.00
2023-05-20T14:33:36.798Z,24.20
2023-05-20T14:36:04.127Z,24.10
2023-05-20T14:38:31.139Z,24.20
2023-05-20T14:40:58.004Z,24.10
2023-05-20T14:43:24.942Z,24.00
2023-05-20T14:45:52.788Z,23.90
2023-05-20T14:48:19.648Z,23.80
2023-05-20T14:50:48.324Z,23.80
2023-05-20T14:53:17.292Z,23.50
2023-05-20T14:55:44.134Z,23.40
2023-05-20T14:58:11.069Z,23.40
2023-05-20T15:00:38.736Z,23.30
2023-05-20T15:03:05.953Z,23.10
2023-05-20T15:05:32.928Z,22.80
2023-05-20T15:08:00.573Z,22.70
2023-05-20T15:10:27.632Z,22.70
2023-05-20T15:12:54.912Z,22.60
2023-05-20T15:15:21.862Z,22.50
2023-05-20T15:17:48.784Z,22.30
2023-05-20T15:20:15.802Z,22.30
2023-05-20T15:22:45.797Z,22.40
2023-05-20T15:25:12.693Z,22.40
2023-05-20T15:27:41.426Z,22.30
2023-05-20T15:30:09.067Z,22.40
2023-05-20T15:32:36.106Z,22.50
2023-05-20T15:35:04.207Z,22.40
2023-05-20T15:37:31.096Z,22.30
2023-05-20T15:39:58.036Z,22.20
2023-05-20T15:42:25.041Z,22.00
2023-05-20T15:44:51.919Z,22.10
2023-05-20T15:47:18.748Z,22.10
2023-05-20T15:49:45.670Z,22.00
2023-05-20T15:52:14.046Z,22.00
2023-05-20T15:54:41.086Z,22.00
2023-05-20T15:57:10.730Z,21.90
2023-05-20T15:59:37.557Z,21.80
2023-05-20T16:02:04.565Z,21.70
2023-05-20T16:04:32.707Z,21.60
2023-05-20T16:06:59.716Z,21.50
2023-05-20T16:09:26.545Z,21.60
2023-05-20T16:11:53.429Z,21.50
2023-05-20T16:14:20.506Z,21.50
2023-05-20T16:16:47.429Z,21.50
2023-05-20T16:19:14.485Z,21.50
2023-05-20T16:21:41.344Z,21.20
2023-05-20T16:24:08.197Z,21.10
2023-05-20T16:26:35.027Z,21.20
2023-05-20T16:29:01.849Z,21.20
2023-05-20T16:31:28.703Z,21.20
2023-05-20T16:33:56.358Z,21.10
2023-05-20T16:36:23.530Z,21.10
2023-05-20T16:38:50.571Z,21.00
2023-05-20T16:41:17.467Z,20.80
2023-05-20T16:43:44.344Z,20.70
2023-05-20T16:46:12.867Z,20.70
2023-05-20T16:48:40.097Z,20.70
2023-05-20T16:51:06.946Z,20.60
2023-05-20T16:53:33.886Z,20.50
2023-05-20T16:56:00.752Z,20.60
2023-05-20T16:58:27.565Z,20.50
2023-05-20T17:00:55.277Z,20.50
2023-05-20T17:03:22.364Z,20.50
2023-05-20T17:05:49.450Z,20.40
2023-05-20T17:08:16.435Z,20.40
2023-05-20T17:10:43.311Z,20.40
2023-05-20T17:13:10.223Z,20.30
2023-05-20T17:15:37.339Z,20.20
2023-05-20T17:18:04.426Z,20.30
2023-05-20T17:20:31.704Z,20.10
2023-05-20T17:22:58.920Z,20.20
2023-05-20T17:25:26.087Z,20.10
2023-05-20T17:27:52.915Z,20.00
2023-05-20T17:30:19.916Z,19.90
2023-05-20T17:32:46.837Z,19.90
2023-05-20T17:35:13.772Z,19.80
2023-05-20T17:37:40.634Z,19.90
2023-05-20T17:40:08.031Z,19.80
2023-05-20T17:42:34.888Z,19.70
2023-05-20T17:45:01.827Z,19.70
2023-05-20T17:47:28.678Z,19.80
2023-05-20T17:49:56.768Z,19.70
2023-05-20T17:52:23.595Z,19.70
2023-05-20T17:54:50.546Z,19.60
2023-05-20T17:57:17.741Z,19.50
2023-05-20T17:59:45.602Z,19.50
2023-05-20T18:02:12.823Z,19.40
2023-05-20T18:04:39.742Z,19.50
2023-05-20T18:07:07.512Z,19.30
2023-05-20T18:09:34.461Z,19.30
2023-05-20T18:12:01.336Z,19.30
2023-05-20T18:14:28.121Z,19.30
2023-05-20T18:16:54.914Z,19.30
2023-05-20T18:19:21.857Z,19.30
2023-05-20T18:21:48.936Z,19.20
2023-05-20T18:24:16.780Z,19.20
2023-05-20T18:26:43.826Z,19.20
2023-05-20T18:29:12.393Z,19.10
2023-05-20T18:31:40.433Z,19.10
2023-05-20T18:34:09.020Z,19.00
2023-05-20T18:36:35.926Z,19.00
2023-05-20T18:39:02.865Z,18.80
2023-05-20T18:41:43.223Z,19.00
2023-05-20T18:44:15.640Z,18.90
2023-05-20T18:46:42.852Z,18.90
2023-05-20T18:49:12.951Z,18.80
2023-05-20T18:51:40.381Z,18.80
2023-05-20T18:54:07.749Z,18.60
2023-05-20T18:56:34.946Z,18.70
2023-05-20T18:59:01.850Z,18.60
2023-05-20T19:01:28.805Z,18.60
2023-05-20T19:03:55.811Z,18.50
2023-05-20T19:06:22.848Z,18.50
2023-05-20T19:08:49.894Z,18.50
2023-05-20T19:11:17.018Z,18.50
2023-05-20T19:13:43.929Z,18.40
2023-05-20T19:16:11.192Z,18.40
2023-05-20T19:18:38.165Z,18.30
2023-05-20T19:21:05.018Z,18.30
2023-05-20T19:23:32.591Z,18.20
2023-05-20T19:25:59.524Z,18.10
2023-05-20T19:28:26.448Z,18.10
2023-05-20T19:30:53.664Z,18.10
2023-05-20T19:33:20.972Z,18.00
2023-05-20T19:35:48.261Z,18.00
2023-05-20T19:38:15.606Z,18.10
2023-05-20T19:40:44.121Z,18.10
2023-05-20T19:43:11.421Z,18.00
2023-05-20T19:45:38.591Z,17.90
2023-05-20T19:48:06.500Z,17.80
2023-05-20T19:50:34.040Z,17.80
2023-05-20T19:53:03.193Z,17.70
2023-05-20T19:55:30.169Z,17.70
2023-05-20T19:57:57.318Z,17.70
2023-05-20T20:00:24.206Z,17.60
2023-05-20T20:02:51.293Z,17.50
2023-05-20T20:05:18.508Z,17.40
2023-05-20T20:07:45.985Z,17.40
2023-05-20T20:10:12.814Z,17.30
2023-05-20T20:12:39.700Z,17.20
2023-05-20T20:15:07.314Z,17.20
2023-05-20T20:17:34.218Z,17.20
2023-05-20T20:20:01.322Z,17.20
2023-05-20T20:22:28.228Z,17.10
2023-05-20T20:24:55.137Z,17.00
2023-05-20T20:27:23.862Z,17.00
2023-05-20T20:29:51.286Z,17.10
2023-05-20T20:32:18.431Z,17.00
2023-05-20T20:34:46.017Z,17.00
2023-05-20T20:37:15.123Z,17.00
2023-05-20T20:39:42.987Z,16.90
2023-05-20T20:42:10.590Z,16.80
2023-05-20T20:44:37.420Z,16.80
2023-05-20T20:47:05.146Z,16.80
2023-05-20T20:49:32.265Z,16.70
2023-05-20T20:51:59.355Z,16.70
2023-05-20T20:54:26.588Z,16.70
2023-05-20T20:56:56.698Z,16.60
2023-05-20T20:59:26.589Z,16.60
2023-05-20T21:01:54.127Z,16.60
2023-05-20T21:04:21.611Z,16.50
2023-05-20T21:06:48.576Z,16.60
2023-05-20T21:09:15.870Z,16.50
2023-05-20T21:11:43.235Z,16.40
2023-05-20T21:14:10.385Z,16.40
2023-05-20T21:16:37.478Z,16.40
2023-05-20T21:19:04.668Z,16.40
2023-05-20T21:21:31.805Z,16.40
2023-05-20T21:23:58.728Z,16.30
2023-05-20T21:26:26.573Z,16.20
2023-05-20T21:28:53.482Z,16.10
2023-05-20T21:31:20.490Z,16.20
2023-05-20T21:33:47.373Z,16.10
2023-05-20T21:36:14.286Z,15.90
2023-05-20T21:38:41.181Z,15.90
2023-05-20T21:41:08.411Z,15.90
2023-05-20T21:43:36.128Z,15.80
2023-05-20T21:46:03.127Z,15.80
2023-05-20T21:48:30.029Z,15.70
2023-05-20T21:50:56.873Z,15.60
2023-05-20T21:53:23.704Z,15.60
2023-05-20T21:55:50.727Z,15.50
2023-05-20T21:58:17.592Z,15.40
2023-05-20T22:00:45.052Z,15.40
2023-05-20T22:03:13.007Z,15.20
2023-05-20T22:05:40.935Z,15.20
2023-05-20T22:08:08.064Z,15.20
2023-05-20T22:10:36.487Z,15.20
2023-05-20T22:13:03.415Z,15.10
2023-05-20T22:15:31.449Z,15.10
2023-05-20T22:17:58.601Z,15.20
2023-05-20T22:20:25.672Z,15.10
2023-05-20T22:22:52.611Z,15.10
2023-05-20T22:25:19.661Z,15.00
2023-05-20T22:27:47.113Z,15.00
2023-05-20T22:30:14.128Z,14.90
2023-05-20T22:32:41.377Z,14.80
2023-05-20T22:35:09.049Z,14.70
2023-05-20T22:37:35.914Z,14.60
2023-05-20T22:40:04.076Z,14.60
2023-05-20T22:42:30.903Z,14.60
2023-05-20T22:44:57.693Z,14.60
2023-05-20T22:47:24.594Z,14.60
2023-05-20T22:49:51.412Z,14.50
2023-05-20T22:52:18.763Z,14.50
2023-05-20T22:54:45.681Z,14.40
2023-05-20T22:57:12.748Z,14.30
2023-05-20T22:59:40.387Z,14.20
2023-05-20T23:02:08.183Z,14.20
2023-05-20T23:04:35.183Z,14.20
2023-05-20T23:07:02.113Z,14.20
2023-05-20T23:09:29.261Z,14.20
2023-05-20T23:11:56.104Z,14.20
2023-05-20T23:14:23.590Z,14.10
2023-05-20T23:16:50.596Z,14.00
2023-05-20T23:19:17.681Z,14.10
2023-05-20T23:21:44.588Z,14.10
2023-05-20T23:24:12.007Z,14.10
2023-05-20T23:26:39.617Z,14.00
2023-05-20T23:29:06.529Z,13.90
2023-05-20T23:31:33.748Z,13.90
2023-05-20T23:34:01.632Z,13.80
2023-05-20T23:36:35.202Z,13.90
2023-05-20T23:39:03.322Z,13.80
2023-05-20T23:41:30.338Z,13.90
2023-05-20T23:43:57.224Z,13.80
2023-05-20T23:46:24.129Z,13.80
2023-05-20T23:48:51.097Z,13.80
2023-05-20T23:51:18.261Z,13.90
2023-05-20T23:53:45.429Z,13.90
2023-05-20T23:56:12.249Z,13.80
2023-05-20T23:58:39.069Z,13.80
